Time;durP1;ratioP1;P1;durP2;ratioP2;P2;SDS_P1;SDS_P2;PMS_P1;PMS_P2;Temp;Humidity;BMP_temperature;BMP_pressure;BME280_temperature;BME280_humidity;BME280_pressure;Samples;Min_cycle;Max_cycle;Signal;HPM_P1;HPM_P2
2021/03/28 00:02:07;;;;;;;44.23;21.10;;;;;;;5.92;56.93;101141.56;1723233;83;21328;-73
2021/03/28 00:05:16;;;;;;;46.73;21.82;;;;;;;5.87;56.99;101148.42;1724867;83;21082;-73
2021/03/28 00:07:52;;;;;;;44.45;22.00;;;;;;;5.84;57.02;101148.69;1724928;83;21536;-72
2021/03/28 00:10:39;;;;;;;46.02;21.75;;;;;;;5.81;57.05;101149.84;1723735;83;21110;-72
2021/03/28 00:13:18;;;;;;;47.03;21.75;;;;;;;5.78;57.09;101152.86;1724973;83;21075;-73
2021/03/28 00:16:00;;;;;;;48.58;22.10;;;;;;;5.74;57.29;101144.64;1724109;83;21217;-74
2021/03/28 00:19:00;;;;;;;46.08;21.90;;;;;;;5.70;57.42;101150.88;1721037;83;21344;-73
2021/03/28 00:21:36;;;;;;;50.97;22.90;;;;;;;5.67;57.62;101147.10;1718987;83;21067;-74
2021/03/28 00:24:23;;;;;;;50.10;23.57;;;;;;;5.62;57.60;101147.19;1717898;82;21585;-74
2021/03/28 00:27:17;;;;;;;49.63;23.02;;;;;;;5.61;57.89;101145.48;1718197;83;21084;-73
2021/03/28 00:30:00;;;;;;;50.67;23.25;;;;;;;5.60;57.92;101153.28;1719492;83;21381;-73
2021/03/28 00:32:44;;;;;;;53.68;24.50;;;;;;;5.59;57.96;101156.50;1717787;83;21380;-73
2021/03/28 00:35:16;;;;;;;56.05;24.18;;;;;;;5.57;58.06;101151.70;1719872;83;21051;-73
2021/03/28 00:37:44;;;;;;;54.23;23.60;;;;;;;5.57;58.08;101152.21;1719845;83;21098;-73
2021/03/28 00:40:18;;;;;;;58.23;24.25;;;;;;;5.56;58.12;101153.22;1719998;83;21597;-73
2021/03/28 00:42:50;;;;;;;55.80;25.05;;;;;;;5.54;58.18;101157.44;1719784;83;21131;-73
2021/03/28 00:45:34;;;;;;;52.88;24.37;;;;;;;5.51;58.30;101151.44;1693651;83;21102;-73
2021/03/28 00:48:22;;;;;;;54.30;24.82;;;;;;;5.51;58.45;101152.80;1719904;83;21803;-73
2021/03/28 00:51:17;;;;;;;50.23;24.47;;;;;;;5.43;58.56;101151.31;1719829;83;21800;-74
2021/03/28 00:53:54;;;;;;;45.80;21.00;;;;;;;5.37;58.61;101144.10;1718833;83;21123;-74
2021/03/28 00:56:46;;;;;;;45.52;20.80;;;;;;;5.34;58.59;101149.83;1717425;83;21218;-72
2021/03/28 00:59:30;;;;;;;42.15;20.32;;;;;;;5.34;58.50;101143.03;1719950;83;21084;-73
2021/03/28 01:02:26;;;;;;;43.10;20.23;;;;;;;5.34;58.43;101152.55;1722404;83;21020;-73
2021/03/28 01:05:19;;;;;;;43.23;20.65;;;;;;;5.33;58.44;101153.55;1697061;83;21019;-73
2021/03/28 01:08:00;;;;;;;48.45;21.12;;;;;;;5.33;58.48;101150.83;1722419;83;21036;-74
2021/03/28 01:10:54;;;;;;;44.70;19.98;;;;;;;5.34;58.52;101152.55;1707417;83;21012;-72
2021/03/28 01:14:09;;;;;;;41.65;20.45;;;;;;;5.32;58.49;101143.69;1722504;83;21028;-73
2021/03/28 01:17:18;;;;;;;42.75;20.12;;;;;;;5.31;58.58;101151.98;1689829;84;21491;-73
2021/03/28 01:20:09;;;;;;;44.93;20.95;;;;;;;5.30;58.67;101148.91;1691516;85;21072;-72
2021/03/28 01:22:51;;;;;;;42.08;19.80;;;;;;;5.24;58.72;101150.34;1720599;83;21028;-74
2021/03/28 01:25:41;;;;;;;47.43;20.82;;;;;;;5.18;58.95;101154.11;1738441;82;21467;-73
2021/03/28 01:28:32;;;;;;;40.08;19.32;;;;;;;5.15;59.08;101147.11;1750590;82;21016;-73
2021/03/28 01:31:06;;;;;;;46.55;21.97;;;;;;;5.14;59.14;101144.53;1750132;81;21091;-73
2021/03/28 01:33:53;;;;;;;44.65;21.25;;;;;;;5.15;59.17;101148.47;1748380;81;21028;-74
2021/03/28 01:36:35;;;;;;;42.53;20.82;;;;;;;5.15;59.18;101145.75;1745467;82;21026;-74
2021/03/28 01:39:20;;;;;;;48.83;21.90;;;;;;;5.11;59.19;101147.03;1733660;83;21434;-74
2021/03/28 01:42:00;;;;;;;43.50;20.90;;;;;;;5.07;59.30;101153.27;1733837;81;21006;-74
2021/03/28 01:44:51;;;;;;;38.10;19.50;;;;;;;5.05;59.33;101154.41;1733663;81;20985;-72
2021/03/28 01:47:47;;;;;;;39.90;20.20;;;;;;;5.01;59.35;101161.98;1733661;83;20985;-73
2021/03/28 01:50:35;;;;;;;44.38;18.77;;;;;;;4.96;59.51;101160.70;1733695;82;21091;-73
2021/03/28 01:53:40;;;;;;;31.90;15.30;;;;;;;4.92;59.64;101153.34;1733912;83;21033;-74
2021/03/28 01:56:42;;;;;;;41.42;20.57;;;;;;;4.90;59.75;101162.13;1733535;83;20986;-73
2021/03/28 01:59:44;;;;;;;44.53;20.37;;;;;;;4.91;59.92;101160.27;1733665;81;21377;-74
2021/03/28 02:02:38;;;;;;;44.50;20.77;;;;;;;4.92;59.92;101168.27;1733649;82;21377;-74
2021/03/28 02:05:35;;;;;;;49.13;22.05;;;;;;;4.90;59.88;101170.77;1733542;81;21013;-73
2021/03/28 02:08:53;;;;;;;46.77;21.40;;;;;;;4.86;59.91;101164.77;1733609;83;21396;-74
2021/03/28 02:11:44;;;;;;;41.20;19.55;;;;;;;4.82;60.03;101166.55;1733621;81;20956;-74
2021/03/28 02:14:27;;;;;;;45.80;19.05;;;;;;;4.75;60.11;101161.69;1733685;83;21424;-74
2021/03/28 02:17:33;;;;;;;44.20;19.30;;;;;;;4.69;60.27;101168.18;1731657;81;21420;-74
2021/03/28 02:20:37;;;;;;;40.12;19.12;;;;;;;4.65;60.44;101167.61;1739837;81;21033;-73
2021/03/28 02:23:30;;;;;;;39.48;19.37;;;;;;;4.62;60.48;101171.95;1745684;82;20938;-74
